Time;durP1;ratioP1;P1;durP2;ratioP2;P2;SDS_P1;SDS_P2;PMS_P1;PMS_P2;Temp;Humidity;BMP_temperature;BMP_pressure;BME280_temperature;BME280_humidity;BME280_pressure;Samples;Min_cycle;Max_cycle;Signal;HPM_P1;HPM_P2
2022/09/16 00:02:04;;;;;;;;;;;24.20;57.80;;;;;;6103681;28;19930;-44
2022/09/16 00:05:06;;;;;;;;;;;24.00;57.70;;;;;;6104996;28;19935;-42
2022/09/16 00:08:07;;;;;;;;;;;24.20;57.80;;;;;;6123238;28;20030;-44
2022/09/16 00:11:09;;;;;;;;;;;24.10;57.70;;;;;;6110206;28;20049;-42
2022/09/16 00:14:13;;;;;;;;;;;24.20;57.80;;;;;;6112637;28;20896;-44
2022/09/16 00:17:15;;;;;;;;;;;24.00;57.60;;;;;;6114582;28;19934;-41
2022/09/16 00:20:19;;;;;;;;;;;23.80;57.60;;;;;;6113442;28;20741;-42
2022/09/16 00:23:20;;;;;;;;;;;24.00;57.70;;;;;;6110742;28;19935;-44
2022/09/16 00:26:22;;;;;;;;;;;24.10;57.70;;;;;;6113096;28;20549;-42
2022/09/16 00:29:23;;;;;;;;;;;24.00;57.70;;;;;;6110001;28;19941;-43
2022/09/16 00:32:25;;;;;;;;;;;24.00;57.70;;;;;;6111749;28;19980;-42
2022/09/16 00:35:27;;;;;;;;;;;24.50;57.90;;;;;;6109072;28;20080;-42
2022/09/16 00:38:28;;;;;;;;;;;23.80;57.50;;;;;;6109603;28;19983;-42
2022/09/16 00:41:32;;;;;;;;;;;24.30;57.80;;;;;;6110746;28;19938;-43
2022/09/16 00:44:44;;;;;;;;;;;24.30;57.80;;;;;;6118234;28;19934;-41
2022/09/16 00:47:51;;;;;;;;;;;23.90;57.50;;;;;;6112919;28;19933;-41
2022/09/16 00:50:55;;;;;;;;;;;24.40;57.70;;;;;;6111110;28;19936;-44
2022/09/16 00:54:01;;;;;;;;;;;25.10;58.20;;;;;;6112415;28;19938;-44
2022/09/16 00:57:05;;;;;;;;;;;24.40;57.80;;;;;;6110637;28;20012;-44
2022/09/16 01:00:12;;;;;;;;;;;23.90;57.60;;;;;;6125174;28;19953;-44
2022/09/16 01:03:13;;;;;;;;;;;24.20;57.70;;;;;;6113540;28;20049;-42
2022/09/16 01:06:15;;;;;;;;;;;24.30;57.70;;;;;;6110939;28;19940;-44
2022/09/16 01:09:18;;;;;;;;;;;24.20;57.70;;;;;;6111042;28;19934;-43
2022/09/16 01:12:19;;;;;;;;;;;24.10;57.70;;;;;;6106820;28;20699;-42
2022/09/16 01:15:22;;;;;;;;;;;24.00;57.60;;;;;;6106861;28;19969;-43
2022/09/16 01:18:30;;;;;;;;;;;23.70;57.40;;;;;;6108914;28;20819;-42
2022/09/16 01:21:37;;;;;;;;;;;24.20;57.70;;;;;;6112411;28;19962;-48
2022/09/16 01:24:48;;;;;;;;;;;23.80;57.40;;;;;;6116550;28;21751;-45
2022/09/16 01:28:00;;;;;;;;;;;23.90;57.50;;;;;;6112808;28;19930;-45
2022/09/16 01:31:07;;;;;;;;;;;23.70;57.40;;;;;;6111837;28;20856;-43
2022/09/16 01:34:13;;;;;;;;;;;24.10;57.50;;;;;;6114251;28;20013;-42
2022/09/16 01:37:19;;;;;;;;;;;23.90;57.40;;;;;;6111148;28;19934;-43
2022/09/16 01:40:23;;;;;;;;;;;24.00;57.50;;;;;;6114670;28;19972;-45
2022/09/16 01:43:28;;;;;;;;;;;23.90;57.50;;;;;;6101449;28;20045;-44
2022/09/16 01:46:35;;;;;;;;;;;23.60;57.30;;;;;;6102699;28;19930;-44
2022/09/16 01:49:42;;;;;;;;;;;23.80;57.40;;;;;;6100002;28;20368;-43
2022/09/16 01:52:47;;;;;;;;;;;24.20;57.60;;;;;;6095966;28;20408;-43
2022/09/16 01:55:51;;;;;;;;;;;23.90;57.50;;;;;;6096405;28;19930;-44
2022/09/16 01:58:56;;;;;;;;;;;23.80;57.40;;;;;;6093253;28;20393;-43
2022/09/16 02:02:04;;;;;;;;;;;23.70;57.40;;;;;;6095070;28;20451;-45
2022/09/16 02:05:08;;;;;;;;;;;23.80;57.40;;;;;;6096769;28;20268;-43
2022/09/16 02:08:11;;;;;;;;;;;23.80;57.50;;;;;;6100708;28;20117;-43
2022/09/16 02:11:17;;;;;;;;;;;24.00;57.50;;;;;;6094922;28;20048;-43
2022/09/16 02:14:20;;;;;;;;;;;24.00;57.50;;;;;;6096113;28;20173;-47
2022/09/16 02:17:25;;;;;;;;;;;23.90;57.50;;;;;;6099804;28;20037;-42
2022/09/16 02:20:27;;;;;;;;;;;23.70;57.30;;;;;;6098410;28;19930;-43
2022/09/16 02:23:32;;;;;;;;;;;23.80;57.40;;;;;;6094002;28;20212;-43
2022/09/16 02:26:36;;;;;;;;;;;24.00;57.40;;;;;;6089543;28;20158;-43
2022/09/16 02:29:40;;;;;;;;;;;23.90;57.40;;;;;;6097139;28;20049;-42
2022/09/16 02:32:44;;;;;;;;;;;23.70;57.90;;;;;;6096726;28;20720;-44
2022/09/16 02:35:47;;;;;;;;;;;24.00;57.40;;;;;;6099297;28;20039;-43
2022/09/16 02:38:50;;;;;;;;;;;24.10;57.50;;;;;;6097252;28;20375;-42
2022/09/16 02:41:54;;;;;;;;;;;23.80;57.30;;;;;;6096294;28;19981;-44
2022/09/16 02:44:55;;;;;;;;;;;23.90;57.40;;;;;;6097639;28;19969;-45
2022/09/16 02:48:02;;;;;;;;;;;23.80;57.30;;;;;;6098247;28;20036;-43
2022/09/16 02:51:09;;;;;;;;;;;23.70;57.30;;;;;;6106961;28;19934;-43
2022/09/16 02:54:14;;;;;;;;;;;23.80;57.30;;;;;;6114881;28;19937;-42
2022/09/16 02:57:16;;;;;;;;;;;23.70;57.30;;;;;;6112392;28;19934;-42
2022/09/16 03:00:17;;;;;;;;;;;23.80;57.40;;;;;;6106832;28;19935;-43
2022/09/16 03:03:20;;;;;;;;;;;23.80;57.40;;;;;;6103729;28;20056;-43
2022/09/16 03:06:22;;;;;;;;;;;23.90;57.40;;;;;;6107533;28;20545;-44
2022/09/16 03:09:23;;;;;;;;;;;23.60;57.20;;;;;;6103656;28;20064;-43
2022/09/16 03:12:35;;;;;;;;;;;23.80;57.40;;;;;;6103767;28;20469;-44
2022/09/16 03:15:45;;;;;;;;;;;23.90;57.40;;;;;;6101700;28;21118;-44
2022/09/16 03:18:54;;;;;;;;;;;23.70;57.20;;;;;;6106214;28;19969;-45
2022/09/16 03:22:01;;;;;;;;;;;23.60;57.20;;;;;;6100539;28;19942;-43
2022/09/16 03:25:06;;;;;;;;;;;23.50;57.10;;;;;;6104289;28;20164;-44
2022/09/16 03:28:10;;;;;;;;;;;23.50;57.10;;;;;;6104534;28;20295;-43
2022/09/16 03:31:15;;;;;;;;;;;23.70;57.20;;;;;;6096961;28;20363;-43
2022/09/16 03:34:20;;;;;;;;;;;23.60;57.10;;;;;;6100482;28;19935;-45
2022/09/16 03:37:22;;;;;;;;;;;23.60;57.10;;;;;;6095499;28;19931;-44
2022/09/16 03:40:24;;;;;;;;;;;24.00;57.20;;;;;;6097345;28;20002;-45
2022/09/16 03:43:25;;;;;;;;;;;24.40;57.30;;;;;;6098686;28;20128;-43
2022/09/16 03:46:27;;;;;;;;;;;24.10;57.20;;;;;;6103682;28;19977;-43
2022/09/16 03:49:29;;;;;;;;;;;23.90;57.10;;;;;;6099586;28;20146;-43
2022/09/16 03:52:30;;;;;;;;;;;23.70;57.00;;;;;;6099767;28;20218;-44
2022/09/16 03:55:32;;;;;;;;;;;23.60;56.90;;;;;;6100138;28;20080;-42
2022/09/16 03:58:33;;;;;;;;;;;23.70;57.00;;;;;;6100400;28;20329;-42
2022/09/16 04:01:34;;;;;;;;;;;23.60;56.90;;;;;;6100736;28;20361;-44
2022/09/16 04:04:36;;;;;;;;;;;23.50;56.90;;;;;;6095671;28;19930;-42
2022/09/16 04:07:38;;;;;;;;;;;23.70;57.00;;;;;;6099385;28;19934;-43
2022/09/16 04:10:39;;;;;;;;;;;23.70;57.00;;;;;;6095772;28;20724;-44
2022/09/16 04:13:40;;;;;;;;;;;24.00;57.20;;;;;;6099016;28;19934;-41
2022/09/16 04:16:42;;;;;;;;;;;23.80;57.10;;;;;;6098212;28;20061;-44
2022/09/16 04:19:46;;;;;;;;;;;23.80;57.00;;;;;;6097261;28;19934;-43
2022/09/16 04:22:48;;;;;;;;;;;23.50;56.90;;;;;;6093099;28;20167;-43
2022/09/16 04:25:52;;;;;;;;;;;23.70;57.10;;;;;;6097206;28;20345;-42
2022/09/16 04:28:54;;;;;;;;;;;23.50;56.90;;;;;;6097904;28;19996;-42
2022/09/16 04:31:55;;;;;;;;;;;23.80;57.10;;;;;;6095435;28;20053;-45
2022/09/16 04:34:57;;;;;;;;;;;23.50;56.90;;;;;;6095889;28;19930;-43
2022/09/16 04:37:58;;;;;;;;;;;23.80;57.20;;;;;;6096036;28;20405;-44
2022/09/16 04:41:00;;;;;;;;;;;23.90;57.20;;;;;;6097188;28;19991;-43
2022/09/16 04:44:02;;;;;;;;;;;23.80;57.10;;;;;;6092483;28;20472;-42
2022/09/16 04:47:04;;;;;;;;;;;23.80;57.10;;;;;;6106223;28;20096;-41
2022/09/16 04:50:06;;;;;;;;;;;23.70;57.00;;;;;;6105136;28;19934;-44
2022/09/16 04:53:07;;;;;;;;;;;23.50;56.90;;;;;;6103895;28;20156;-42
2022/09/16 04:56:12;;;;;;;;;;;23.50;56.90;;;;;;6104725;28;19930;-47
2022/09/16 04:59:13;;;;;;;;;;;23.50;56.90;;;;;;6101867;28;20111;-43
2022/09/16 05:02:14;;;;;;;;;;;23.90;57.20;;;;;;6103328;28;20014;-46
2022/09/16 05:05:19;;;;;;;;;;;23.50;57.00;;;;;;6105952;28;19945;-45
2022/09/16 05:08:21;;;;;;;;;;;23.40;56.90;;;;;;6116308;28;20047;-43
2022/09/16 05:11:23;;;;;;;;;;;23.60;57.10;;;;;;6102130;28;19926;-43
2022/09/16 05:14:27;;;;;;;;;;;23.90;57.10;;;;;;6106196;28;19950;-44
2022/09/16 05:17:29;;;;;;;;;;;23.50;56.90;;;;;;6100166;28;20972;-44
2022/09/16 05:20:55;;;;;;;;;;;23.60;56.90;;;;;;6105348;28;20706;-42
2022/09/16 05:23:58;;;;;;;;;;;23.50;56.90;;;;;;6099576;28;20016;-42
2022/09/16 05:27:00;;;;;;;;;;;23.40;56.80;;;;;;6102417;28;19934;-41
2022/09/16 05:30:01;;;;;;;;;;;23.40;56.90;;;;;;6105914;28;19937;-41
2022/09/16 05:33:03;;;;;;;;;;;23.30;56.80;;;;;;6099364;28;19934;-41
2022/09/16 05:36:06;;;;;;;;;;;23.50;57.00;;;;;;6095032;28;19934;-41
2022/09/16 05:39:07;;;;;;;;;;;23.80;57.00;;;;;;6097066;28;19941;-44
2022/09/16 05:42:26;;;;;;;;;;;23.50;56.90;;;;;;6092812;28;21632;-42
2022/09/16 05:45:27;;;;;;;;;;;23.60;57.00;;;;;;6077293;28;20404;-43
2022/09/16 05:48:34;;;;;;;;;;;23.70;57.10;;;;;;6079574;28;19934;-43
2022/09/16 05:51:40;;;;;;;;;;;23.70;57.00;;;;;;6085777;28;19958;-43
2022/09/16 05:54:41;;;;;;;;;;;23.70;56.90;;;;;;6094846;28;20056;-43
2022/09/16 05:57:42;;;;;;;;;;;23.90;57.10;;;;;;6092675;28;19984;-43
2022/09/16 06:00:45;;;;;;;;;;;23.70;57.10;;;;;;6089824;28;19930;-43
2022/09/16 06:03:47;;;;;;;;;;;23.70;57.00;;;;;;6093939;28;21045;-43
2022/09/16 06:06:49;;;;;;;;;;;23.40;56.80;;;;;;6093693;28;19942;-42
2022/09/16 06:09:51;;;;;;;;;;;23.40;56.80;;;;;;6087993;28;21242;-43
2022/09/16 06:12:53;;;;;;;;;;;23.70;57.00;;;;;;6086567;28;19934;-43
2022/09/16 06:15:55;;;;;;;;;;;23.60;56.90;;;;;;6082480;28;19941;-43
2022/09/16 06:18:56;;;;;;;;;;;23.80;57.10;;;;;;6083636;28;19938;-43
2022/09/16 06:22:01;;;;;;;;;;;23.40;56.80;;;;;;6067181;28;19934;-42
2022/09/16 06:25:02;;;;;;;;;;;23.70;56.90;;;;;;6078736;28;20892;-43
2022/09/16 06:28:04;;;;;;;;;;;23.50;56.70;;;;;;6077985;28;19934;-45
2022/09/16 06:31:06;;;;;;;;;;;23.70;56.80;;;;;;6069717;28;19941;-43
2022/09/16 06:34:12;;;;;;;;;;;23.70;56.80;;;;;;6088753;28;19987;-43
2022/09/16 06:37:14;;;;;;;;;;;23.60;56.70;;;;;;6062953;28;19937;-42
2022/09/16 06:40:16;;;;;;;;;;;23.10;56.60;;;;;;6062604;28;20492;-43
2022/09/16 06:43:21;;;;;;;;;;;23.70;57.20;;;;;;6030811;28;19978;-43
2022/09/16 06:46:23;;;;;;;;;;;23.40;57.10;;;;;;6050942;28;19996;-47
2022/09/16 06:49:24;;;;;;;;;;;23.50;57.40;;;;;;6013515;28;24731;-44
2022/09/16 06:52:27;;;;;;;;;;;23.30;57.40;;;;;;6014596;28;19940;-43
2022/09/16 06:55:28;;;;;;;;;;;23.40;57.60;;;;;;6016812;28;22020;-43
2022/09/16 06:58:31;;;;;;;;;;;23.20;57.80;;;;;;6003603;28;19941;-42
2022/09/16 07:01:34;;;;;;;;;;;23.30;57.90;;;;;;6013300;28;21518;-44
2022/09/16 07:04:37;;;;;;;;;;;23.70;58.10;;;;;;5963027;28;20342;-41
2022/09/16 07:07:42;;;;;;;;;;;22.80;57.80;;;;;;5974377;28;19942;-42
2022/09/16 07:10:44;;;;;;;;;;;23.10;58.00;;;;;;5957653;28;19993;-43
2022/09/16 07:13:46;;;;;;;;;;;23.30;57.90;;;;;;5979625;28;19934;-43
2022/09/16 07:16:47;;;;;;;;;;;23.10;58.30;;;;;;5963248;28;22030;-42
2022/09/16 07:19:49;;;;;;;;;;;23.30;58.00;;;;;;5984066;28;19978;-41
2022/09/16 07:22:52;;;;;;;;;;;23.10;57.90;;;;;;5971173;28;19935;-41
2022/09/16 07:25:58;;;;;;;;;;;23.10;58.10;;;;;;5950785;28;19946;-41
2022/09/16 07:29:01;;;;;;;;;;;23.10;58.00;;;;;;5974833;28;20065;-41
2022/09/16 07:32:02;;;;;;;;;;;23.00;58.00;;;;;;5968159;28;19986;-40
2022/09/16 07:35:04;;;;;;;;;;;22.80;57.80;;;;;;5966193;28;19934;-41
2022/09/16 07:38:06;;;;;;;;;;;23.10;58.30;;;;;;5968221;28;19934;-41
2022/09/16 07:41:10;;;;;;;;;;;23.10;57.80;;;;;;5967287;28;19934;-42
2022/09/16 07:44:12;;;;;;;;;;;23.10;57.70;;;;;;5981655;28;22298;-43
2022/09/16 07:47:14;;;;;;;;;;;23.00;57.60;;;;;;5961560;28;19941;-41
2022/09/16 07:50:22;;;;;;;;;;;22.90;57.60;;;;;;5980308;28;22003;-42
2022/09/16 07:53:26;;;;;;;;;;;23.00;58.40;;;;;;6006770;28;19938;-43
2022/09/16 07:56:33;;;;;;;;;;;23.10;57.70;;;;;;5991342;28;19977;-42
2022/09/16 07:59:34;;;;;;;;;;;22.70;57.40;;;;;;5978369;28;20419;-41
2022/09/16 08:02:36;;;;;;;;;;;23.20;57.80;;;;;;5949219;28;20020;-42
2022/09/16 08:05:37;;;;;;;;;;;23.10;57.70;;;;;;5964828;28;19942;-43
2022/09/16 08:08:39;;;;;;;;;;;23.00;57.40;;;;;;5946207;28;21235;-43
2022/09/16 08:11:41;;;;;;;;;;;23.00;57.40;;;;;;5943795;28;19977;-42
2022/09/16 08:14:43;;;;;;;;;;;23.10;57.50;;;;;;5973873;28;21704;-41
2022/09/16 08:17:44;;;;;;;;;;;22.90;57.60;;;;;;5953352;28;19938;-43
2022/09/16 08:20:45;;;;;;;;;;;23.00;57.60;;;;;;5954529;28;20107;-40
2022/09/16 08:23:48;;;;;;;;;;;23.10;57.70;;;;;;5933520;28;19934;-42
2022/09/16 08:26:49;;;;;;;;;;;23.10;57.50;;;;;;5960944;28;20458;-41
2022/09/16 08:29:50;;;;;;;;;;;22.90;57.10;;;;;;5961121;28;22389;-44
2022/09/16 08:32:54;;;;;;;;;;;23.10;57.00;;;;;;5971805;28;19978;-44
2022/09/16 08:35:57;;;;;;;;;;;22.90;56.60;;;;;;5979980;28;19934;-42
2022/09/16 08:39:00;;;;;;;;;;;23.30;56.60;;;;;;5971126;28;21896;-42
2022/09/16 08:42:08;;;;;;;;;;;23.20;56.40;;;;;;5986006;28;19934;-43
2022/09/16 08:45:18;;;;;;;;;;;23.40;56.40;;;;;;5966178;28;19940;-44
2022/09/16 08:48:27;;;;;;;;;;;23.20;56.10;;;;;;5963397;28;21651;-43
2022/09/16 08:51:31;;;;;;;;;;;23.40;56.10;;;;;;5966338;28;19941;-43
2022/09/16 08:54:36;;;;;;;;;;;23.60;56.10;;;;;;5963022;28;19934;-48
2022/09/16 08:57:38;;;;;;;;;;;23.50;56.00;;;;;;5977575;28;19989;-44
2022/09/16 09:00:41;;;;;;;;;;;23.60;55.90;;;;;;5965850;28;19934;-44
2022/09/16 09:03:43;;;;;;;;;;;23.60;55.70;;;;;;5982342;28;19941;-43
2022/09/16 09:06:50;;;;;;;;;;;23.60;55.80;;;;;;5989093;28;21026;-43
2022/09/16 09:09:56;;;;;;;;;;;23.80;55.70;;;;;;5961804;28;19935;-44
2022/09/16 09:13:06;;;;;;;;;;;23.60;55.60;;;;;;5970806;28;20753;-42
2022/09/16 09:16:12;;;;;;;;;;;23.90;55.60;;;;;;5969293;28;19934;-42
2022/09/16 09:19:21;;;;;;;;;;;24.00;55.60;;;;;;5973740;28;20764;-42
2022/09/16 09:22:26;;;;;;;;;;;23.70;55.30;;;;;;5979103;28;19941;-42
2022/09/16 09:25:34;;;;;;;;;;;24.00;55.40;;;;;;5982603;28;19942;-43
2022/09/16 09:28:41;;;;;;;;;;;24.00;55.40;;;;;;5985161;28;21334;-44
2022/09/16 09:31:45;;;;;;;;;;;23.90;55.20;;;;;;5957659;28;20024;-42
2022/09/16 09:34:58;;;;;;;;;;;23.90;55.20;;;;;;5951350;28;19934;-43
2022/09/16 09:38:11;;;;;;;;;;;23.90;55.40;;;;;;5953672;28;20004;-44
2022/09/16 09:41:17;;;;;;;;;;;24.00;54.90;;;;;;5960322;28;19934;-45
2022/09/16 09:44:28;;;;;;;;;;;23.80;54.90;;;;;;5976745;28;19940;-44
2022/09/16 09:47:32;;;;;;;;;;;24.00;55.00;;;;;;5955824;28;20010;-44
2022/09/16 09:50:39;;;;;;;;;;;24.10;55.10;;;;;;5976632;28;19941;-46
2022/09/16 09:53:43;;;;;;;;;;;24.20;55.00;;;;;;5966579;28;19938;-45
2022/09/16 09:56:47;;;;;;;;;;;24.00;54.80;;;;;;5963822;28;22204;-46
2022/09/16 09:59:50;;;;;;;;;;;24.40;54.90;;;;;;5957448;28;19941;-43
2022/09/16 10:02:51;;;;;;;;;;;24.30;54.90;;;;;;5962000;28;20021;-44
2022/09/16 10:05:53;;;;;;;;;;;24.20;54.80;;;;;;5983995;28;19934;-43
2022/09/16 10:08:55;;;;;;;;;;;24.20;54.70;;;;;;5977150;28;20673;-42
2022/09/16 10:11:58;;;;;;;;;;;24.40;54.70;;;;;;5960918;28;19934;-43
2022/09/16 10:15:00;;;;;;;;;;;24.20;54.50;;;;;;5989539;28;19934;-43
2022/09/16 10:18:08;;;;;;;;;;;24.30;54.50;;;;;;5957344;28;20080;-44
2022/09/16 10:21:11;;;;;;;;;;;24.00;54.30;;;;;;5982298;28;19934;-45
2022/09/16 10:24:26;;;;;;;;;;;24.30;54.60;;;;;;5989361;28;20610;-43
2022/09/16 10:27:29;;;;;;;;;;;24.20;54.30;;;;;;5977359;28;20934;-48
2022/09/16 10:30:33;;;;;;;;;;;24.40;54.30;;;;;;5974879;28;20452;-43
2022/09/16 10:33:35;;;;;;;;;;;24.50;54.40;;;;;;5973368;28;20103;-43
2022/09/16 10:36:37;;;;;;;;;;;24.40;54.40;;;;;;5999086;28;19934;-42
2022/09/16 10:39:39;;;;;;;;;;;24.30;54.20;;;;;;6006746;28;21103;-43
2022/09/16 10:42:46;;;;;;;;;;;24.50;54.30;;;;;;6008886;28;19942;-45
2022/09/16 10:45:48;;;;;;;;;;;24.40;54.30;;;;;;6037985;28;19934;-43
2022/09/16 10:48:51;;;;;;;;;;;24.50;54.50;;;;;;6045557;28;19941;-44
2022/09/16 10:51:52;;;;;;;;;;;24.00;54.60;;;;;;6030748;28;19941;-43
2022/09/16 10:54:54;;;;;;;;;;;23.70;55.00;;;;;;6028023;28;19941;-45
2022/09/16 10:58:04;;;;;;;;;;;23.70;55.20;;;;;;6030294;28;20056;-43
2022/09/16 11:01:16;;;;;;;;;;;23.90;55.40;;;;;;6024404;28;21830;-49
2022/09/16 11:04:27;;;;;;;;;;;23.70;55.50;;;;;;6038686;28;19934;-43
2022/09/16 11:07:35;;;;;;;;;;;23.80;55.50;;;;;;6024518;28;21505;-43
2022/09/16 11:10:41;;;;;;;;;;;23.90;55.30;;;;;;6022976;28;19935;-47
2022/09/16 11:13:46;;;;;;;;;;;24.00;55.20;;;;;;6022142;28;20060;-43
2022/09/16 11:16:58;;;;;;;;;;;23.80;54.80;;;;;;5998030;28;20005;-42
2022/09/16 11:20:06;;;;;;;;;;;23.90;54.60;;;;;;6031437;28;21260;-43
2022/09/16 11:23:13;;;;;;;;;;;23.90;54.40;;;;;;6028507;28;19982;-42
2022/09/16 11:26:18;;;;;;;;;;;24.20;54.30;;;;;;6044235;28;19953;-44
2022/09/16 11:29:30;;;;;;;;;;;24.30;54.20;;;;;;6045293;28;19952;-45
2022/09/16 11:32:40;;;;;;;;;;;24.30;54.10;;;;;;5992519;28;21857;-45
2022/09/16 11:35:57;;;;;;;;;;;24.20;53.90;;;;;;6024299;28;21125;-42
2022/09/16 11:39:04;;;;;;;;;;;23.90;53.70;;;;;;6020780;28;20045;-43
2022/09/16 11:42:10;;;;;;;;;;;24.00;53.70;;;;;;6017067;28;21537;-45
2022/09/16 11:45:25;;;;;;;;;;;24.80;54.00;;;;;;6021532;28;20038;-42
2022/09/16 11:48:33;;;;;;;;;;;24.30;53.70;;;;;;6019628;28;19934;-42
2022/09/16 11:51:40;;;;;;;;;;;24.10;53.50;;;;;;5993151;28;20016;-41
2022/09/16 11:54:47;;;;;;;;;;;24.40;53.70;;;;;;6015464;28;19934;-47
2022/09/16 11:57:51;;;;;;;;;;;24.20;53.40;;;;;;5970473;28;19934;-46
2022/09/16 12:00:55;;;;;;;;;;;24.20;53.40;;;;;;5918429;28;20378;-41
2022/09/16 12:04:00;;;;;;;;;;;24.20;53.20;;;;;;5955885;28;19934;-40
2022/09/16 12:07:06;;;;;;;;;;;24.30;53.20;;;;;;5929087;28;20904;-41
2022/09/16 12:10:13;;;;;;;;;;;24.40;53.20;;;;;;5965742;28;19970;-42
2022/09/16 12:13:16;;;;;;;;;;;24.70;53.30;;;;;;5975925;28;20817;-41
2022/09/16 12:16:19;;;;;;;;;;;24.90;53.40;;;;;;5979883;28;20083;-43
2022/09/16 12:19:23;;;;;;;;;;;24.30;53.00;;;;;;5994515;28;19934;-44
2022/09/16 12:22:26;;;;;;;;;;;24.80;53.30;;;;;;5990932;28;20056;-41
2022/09/16 12:25:31;;;;;;;;;;;24.60;53.10;;;;;;5976922;28;19944;-42
2022/09/16 12:28:35;;;;;;;;;;;24.80;53.20;;;;;;5963882;28;19942;-42
2022/09/16 12:31:40;;;;;;;;;;;24.90;53.10;;;;;;5973626;28;19940;-42
2022/09/16 12:34:44;;;;;;;;;;;24.90;53.00;;;;;;5961347;28;20020;-41
2022/09/16 12:37:47;;;;;;;;;;;24.40;52.70;;;;;;5970650;28;19940;-41
2022/09/16 12:40:54;;;;;;;;;;;24.80;52.90;;;;;;5953194;28;19934;-42
2022/09/16 12:44:05;;;;;;;;;;;24.90;52.90;;;;;;5981001;28;19934;-41
2022/09/16 12:47:40;;;;;;;;;;;24.90;52.90;;;;;;5969949;28;20068;-42
2022/09/16 12:50:47;;;;;;;;;;;24.70;52.60;;;;;;5967259;28;20056;-46
2022/09/16 12:53:57;;;;;;;;;;;24.90;52.70;;;;;;5977126;28;20017;-42
2022/09/16 12:57:09;;;;;;;;;;;24.90;52.60;;;;;;5978238;28;19935;-43
2022/09/16 13:00:13;;;;;;;;;;;24.70;52.50;;;;;;5958336;28;19938;-40
2022/09/16 13:03:16;;;;;;;;;;;25.00;52.60;;;;;;5945523;28;19942;-40
2022/09/16 13:06:21;;;;;;;;;;;24.70;52.40;;;;;;5968328;28;19941;-40
2022/09/16 13:09:24;;;;;;;;;;;24.90;52.50;;;;;;5959311;28;19953;-41
2022/09/16 13:12:26;;;;;;;;;;;24.90;52.50;;;;;;5960546;28;19934;-42
2022/09/16 13:15:53;;;;;;;;;;;24.90;52.60;;;;;;5962169;28;19941;-41
2022/09/16 13:19:18;;;;;;;;;;;25.10;53.10;;;;;;5942921;28;24505;-40
2022/09/16 13:22:22;;;;;;;;;;;25.00;52.60;;;;;;5965422;28;20467;-40
2022/09/16 13:25:25;;;;;;;;;;;24.90;52.50;;;;;;5963710;28;19934;-40
2022/09/16 13:28:34;;;;;;;;;;;24.70;52.40;;;;;;5962494;28;19938;-39
2022/09/16 13:31:45;;;;;;;;;;;24.90;52.30;;;;;;5935362;28;19942;-40
2022/09/16 13:34:46;;;;;;;;;;;25.20;52.60;;;;;;5962735;28;20658;-40
2022/09/16 13:37:50;;;;;;;;;;;25.50;52.80;;;;;;5967212;28;20060;-41
2022/09/16 13:40:53;;;;;;;;;;;25.10;52.40;;;;;;5951896;28;20024;-40
2022/09/16 13:43:54;;;;;;;;;;;24.70;52.20;;;;;;5976588;28;20024;-40
2022/09/16 13:47:06;;;;;;;;;;;25.00;52.40;;;;;;5981319;28;21379;-42
2022/09/16 13:50:12;;;;;;;;;;;25.00;52.30;;;;;;5978041;28;19934;-39
2022/09/16 13:53:19;;;;;;;;;;;24.80;52.30;;;;;;5975732;28;19965;-40
2022/09/16 13:56:26;;;;;;;;;;;25.10;52.30;;;;;;5986616;28;23392;-40
2022/09/16 13:59:34;;;;;;;;;;;24.90;52.20;;;;;;5981535;28;19934;-40
2022/09/16 14:02:41;;;;;;;;;;;24.70;52.10;;;;;;5965926;28;20893;-41
2022/09/16 14:05:52;;;;;;;;;;;25.00;52.20;;;;;;5938853;28;21200;-41
2022/09/16 14:08:57;;;;;;;;;;;25.10;52.30;;;;;;5955894;28;19941;-40
2022/09/16 14:12:02;;;;;;;;;;;25.20;52.40;;;;;;5957476;28;19941;-40
2022/09/16 14:15:04;;;;;;;;;;;25.10;52.20;;;;;;5988931;28;20404;-41
2022/09/16 14:18:08;;;;;;;;;;;24.90;52.10;;;;;;5978428;28;19934;-41
2022/09/16 14:21:17;;;;;;;;;;;25.10;52.30;;;;;;5974359;28;20356;-40
2022/09/16 14:24:19;;;;;;;;;;;25.00;52.10;;;;;;5978812;28;19934;-41
2022/09/16 14:27:26;;;;;;;;;;;25.20;52.70;;;;;;5977164;28;19938;-40
2022/09/16 14:30:27;;;;;;;;;;;24.90;52.00;;;;;;5964757;28;19934;-40
2022/09/16 14:33:30;;;;;;;;;;;25.00;52.10;;;;;;5961374;28;21460;-40
2022/09/16 14:36:33;;;;;;;;;;;25.10;52.10;;;;;;5941295;28;20283;-41
2022/09/16 14:39:39;;;;;;;;;;;25.40;52.20;;;;;;5934880;28;19934;-43
2022/09/16 14:42:45;;;;;;;;;;;24.90;52.50;;;;;;5980118;28;19936;-40
2022/09/16 14:45:54;;;;;;;;;;;24.70;51.70;;;;;;5977267;28;19934;-40
2022/09/16 14:48:55;;;;;;;;;;;25.10;52.10;;;;;;5965760;28;19934;-40
2022/09/16 14:52:00;;;;;;;;;;;25.00;52.00;;;;;;5996769;28;21060;-40
2022/09/16 14:55:06;;;;;;;;;;;24.90;51.90;;;;;;5974964;28;20057;-41
2022/09/16 14:58:08;;;;;;;;;;;25.10;52.00;;;;;;6009008;28;21078;-40
2022/09/16 15:01:11;;;;;;;;;;;25.10;52.00;;;;;;6000495;28;19934;-40
2022/09/16 15:04:17;;;;;;;;;;;25.00;51.90;;;;;;5986798;28;20055;-40
2022/09/16 15:07:20;;;;;;;;;;;25.00;52.00;;;;;;5986147;28;20407;-40
2022/09/16 15:10:24;;;;;;;;;;;25.00;51.90;;;;;;6007687;28;20016;-40
2022/09/16 15:13:27;;;;;;;;;;;25.00;52.00;;;;;;6001418;28;19988;-41
2022/09/16 15:16:28;;;;;;;;;;;25.00;51.90;;;;;;6023127;28;19934;-40
2022/09/16 15:19:33;;;;;;;;;;;25.00;51.90;;;;;;6000515;28;19973;-40
2022/09/16 15:22:38;;;;;;;;;;;25.10;51.90;;;;;;6011875;28;19935;-40
2022/09/16 15:25:50;;;;;;;;;;;25.30;52.10;;;;;;6005722;28;19941;-40
2022/09/16 15:28:53;;;;;;;;;;;25.20;52.10;;;;;;5992603;28;19989;-42
2022/09/16 15:32:05;;;;;;;;;;;24.80;51.70;;;;;;5981896;28;19942;-40
2022/09/16 15:35:12;;;;;;;;;;;25.00;51.90;;;;;;5970909;28;20093;-40
2022/09/16 15:38:19;;;;;;;;;;;25.10;51.90;;;;;;5984844;28;22845;-41
2022/09/16 15:41:21;;;;;;;;;;;25.10;51.80;;;;;;5984145;28;20169;-40
2022/09/16 15:44:26;;;;;;;;;;;25.10;51.90;;;;;;6008211;28;19934;-40
2022/09/16 15:47:29;;;;;;;;;;;25.00;51.80;;;;;;6014338;28;19952;-42
2022/09/16 15:50:39;;;;;;;;;;;25.00;51.80;;;;;;6029325;28;19934;-40
2022/09/16 15:53:42;;;;;;;;;;;25.00;51.80;;;;;;6037852;28;21196;-41
2022/09/16 15:56:57;;;;;;;;;;;24.90;51.60;;;;;;6045712;28;23022;-41
2022/09/16 16:00:10;;;;;;;;;;;25.10;51.80;;;;;;6031159;28;20029;-42
2022/09/16 16:03:17;;;;;;;;;;;24.70;51.50;;;;;;6047119;28;20064;-40
2022/09/16 16:06:20;;;;;;;;;;;25.00;51.70;;;;;;6047315;28;20079;-40
2022/09/16 16:09:29;;;;;;;;;;;24.80;51.50;;;;;;6036298;28;19992;-40
2022/09/16 16:12:31;;;;;;;;;;;25.00;51.60;;;;;;6036189;28;21940;-41
2022/09/16 16:15:33;;;;;;;;;;;25.00;51.60;;;;;;6033853;28;20374;-41
2022/09/16 16:18:35;;;;;;;;;;;25.00;51.60;;;;;;6045040;28;19937;-40
2022/09/16 16:21:37;;;;;;;;;;;25.00;51.60;;;;;;6038490;28;19938;-40
2022/09/16 16:24:39;;;;;;;;;;;25.00;51.60;;;;;;6045365;28;19946;-42
2022/09/16 16:27:42;;;;;;;;;;;24.90;51.60;;;;;;6045785;28;19942;-41
2022/09/16 16:30:43;;;;;;;;;;;24.80;51.60;;;;;;6051064;28;21149;-42
2022/09/16 16:33:46;;;;;;;;;;;24.90;51.60;;;;;;6049210;28;19934;-42
2022/09/16 16:36:47;;;;;;;;;;;25.00;51.80;;;;;;6073266;28;19941;-44
2022/09/16 16:39:49;;;;;;;;;;;24.90;51.60;;;;;;6047950;28;19934;-41
2022/09/16 16:42:51;;;;;;;;;;;25.00;51.60;;;;;;6060926;28;19934;-42
2022/09/16 16:45:53;;;;;;;;;;;25.20;51.70;;;;;;6064768;28;19934;-41
2022/09/16 16:48:54;;;;;;;;;;;24.80;51.40;;;;;;6071282;28;19941;-45
2022/09/16 16:51:56;;;;;;;;;;;25.00;51.40;;;;;;6072440;28;20049;-41
2022/09/16 16:54:58;;;;;;;;;;;25.00;51.40;;;;;;6079309;28;20053;-41
2022/09/16 16:58:00;;;;;;;;;;;24.90;51.40;;;;;;6075285;28;20807;-42
2022/09/16 17:01:09;;;;;;;;;;;24.90;51.30;;;;;;6075332;28;19935;-42
2022/09/16 17:04:10;;;;;;;;;;;25.10;51.50;;;;;;6083014;28;19934;-42
2022/09/16 17:07:11;;;;;;;;;;;24.90;51.40;;;;;;6081138;28;19934;-42
2022/09/16 17:10:27;;;;;;;;;;;25.00;51.40;;;;;;6087190;28;20862;-41
2022/09/16 17:13:29;;;;;;;;;;;24.80;51.30;;;;;;6076360;28;19934;-42
2022/09/16 17:16:31;;;;;;;;;;;25.00;51.50;;;;;;6078825;28;21824;-42
2022/09/16 17:19:33;;;;;;;;;;;25.00;51.40;;;;;;6103308;28;19935;-42
2022/09/16 17:22:34;;;;;;;;;;;25.10;51.40;;;;;;6078115;28;20221;-42
2022/09/16 17:25:35;;;;;;;;;;;25.40;51.60;;;;;;6062186;28;19934;-42
2022/09/16 17:28:38;;;;;;;;;;;25.00;51.30;;;;;;6079292;28;20976;-41
2022/09/16 17:31:40;;;;;;;;;;;24.80;51.80;;;;;;6075054;28;20465;-42
2022/09/16 17:34:41;;;;;;;;;;;24.90;51.30;;;;;;6079630;28;20688;-42
2022/09/16 17:37:42;;;;;;;;;;;25.00;51.30;;;;;;6084230;28;20055;-42
2022/09/16 17:40:44;;;;;;;;;;;25.10;51.30;;;;;;6093680;28;20060;-41
2022/09/16 17:43:51;;;;;;;;;;;25.00;51.30;;;;;;6082357;28;20757;-42
2022/09/16 17:46:52;;;;;;;;;;;25.30;51.50;;;;;;6081824;28;20046;-42
2022/09/16 17:49:54;;;;;;;;;;;24.70;51.10;;;;;;6081358;28;20478;-42
2022/09/16 17:52:55;;;;;;;;;;;25.00;51.20;;;;;;6078708;28;20853;-44